CYCO

Details ICAO CYCO (YCO)
Name KUGLUKTUK
Region Canada
Timezone America/Cambridge_Bay (UTC-7.0)
Plans Departing 5
Arriving 6
Stats Elevation 74 ft / 23 m (AMSL)
Location 67.816667° -115.144028°
Runways 1
Magnetic Variation 17.502° E
Sunrise Unknown / Unknown
Sunset Unknown / Unknown
Advertisement - Login to hide

Runways

ID Width Length Bearing (true) Bearing (mag) Surface Threshold Offset Overrun Length
12T 100 ft / 30 m 5,497 ft / 1,676 m 121.07° 103.57° Gravel 0 ft / 0 m 0 ft / 0 m
30T 100 ft / 30 m 5,497 ft / 1,676 m 301.10° 283.60° Gravel 0 ft / 0 m 0 ft / 0 m

Map

Weather


0- 5 10 15 20 25 30 35+ Temperature / ° C

Clouds and Precipitation
Forecast for 2017-12-13 06:00 UTC. Updated an hour ago

Ground ~20,000 ft ~40,000 ft Winds

METAR

CYCO 130200Z 02004KT 15SM IC FEW055 SCT120 M21/M24 A3002 RMK SC2AS2 SLP171

TAF

TAF CYCO 130038Z 1301/1313 04005KT P6SM BKN050 TEMPO 1301/1304 6SM -SN BKN030 OVC050 FM130400 02005KT P6SM FEW050 SCT100 BECMG 1307/1309 29010KT RMK NXT FCST BY 130700Z

Frequencies

Unicom 122.10 MHz MANDATORY FREQ
Warning: Do not use this data for real-world aviation or navigation. No guarantee of current accuracy is given.